Terminal Aerodrome Forecast
Issued by NWS

Home | Current Version | Previous Version | Text Only | Print | Product List | Glossary On
Versions: 1 2 3 4 5 6 7 8 9 10 11 12 13 14 15 16 17 18 19 20 21 22 23 24 25 26 27 28 29 30 31 32 33 34 35 36 37 38
000
FTUS43 KDLH 010200 AAB
TAFHYR
TAF AMD
KHYR 010220Z 0102/0124 16010KT P6SM -SHRA BKN040
      TEMPO 0102/0104 26010G22KT 1SM +TSRA BKN020CB OVC040
     FM010400 22005KT 4SM -RA BR SCT007 OVC015
     FM010800 24005KT 2SM -RA BR OVC007
     FM011300 27005KT 4SM -RA BR SCT007 OVC015
     FM011600 29006KT P6SM SCT025=

USA.gov is the U.S. government's official web portal to all federal, state and local government web resources and services.